Time;durP1;ratioP1;P1;durP2;ratioP2;P2;SDS_P1;SDS_P2;PMS_P1;PMS_P2;Temp;Humidity;BMP_temperature;BMP_pressure;BME280_temperature;BME280_humidity;BME280_pressure;Samples;Min_cycle;Max_cycle;Signal;HPM_P1;HPM_P2
2023/12/29 00:01:30;;;;;;;2.42;0.60;;;9.00;99.90;;;;;;5009228;28;20480;-59
2023/12/29 00:03:56;;;;;;;1.02;0.60;;;9.00;99.90;;;;;;5011600;28;20404;-60
2023/12/29 00:06:21;;;;;;;2.58;0.68;;;9.00;99.90;;;;;;5010819;28;20020;-59
2023/12/29 00:08:47;;;;;;;3.22;0.75;;;9.00;99.90;;;;;;5008000;28;20040;-59
2023/12/29 00:11:22;;;;;;;1.98;0.52;;;9.00;99.90;;;;;;4995412;28;20484;-60
2023/12/29 00:13:48;;;;;;;1.50;0.57;;;9.00;99.90;;;;;;5008671;28;20695;-59
2023/12/29 00:16:15;;;;;;;4.30;0.60;;;8.90;99.90;;;;;;5006834;28;20524;-57
2023/12/29 00:18:41;;;;;;;3.47;0.88;;;9.00;99.90;;;;;;5003490;28;20047;-59
2023/12/29 00:21:07;;;;;;;0.73;0.70;;;9.00;99.90;;;;;;5006588;28;20018;-57
2023/12/29 00:23:33;;;;;;;1.90;0.80;;;9.00;99.90;;;;;;5005231;28;20027;-58
2023/12/29 00:25:58;;;;;;;2.42;0.73;;;9.00;99.90;;;;;;5008024;28;20362;-59
2023/12/29 00:28:24;;;;;;;2.67;0.60;;;9.10;99.90;;;;;;5008829;28;20033;-60
2023/12/29 00:30:49;;;;;;;4.68;0.80;;;9.10;99.90;;;;;;5004254;28;20030;-59
2023/12/29 00:33:15;;;;;;;3.70;0.95;;;9.10;99.90;;;;;;5007770;28;20030;-58
2023/12/29 00:35:41;;;;;;;3.45;1.00;;;9.10;99.90;;;;;;5008173;28;20042;-59
2023/12/29 00:38:06;;;;;;;1.10;0.60;;;9.10;99.90;;;;;;5007067;28;20109;-58
2023/12/29 00:40:32;;;;;;;3.30;1.05;;;9.10;99.90;;;;;;5007373;28;20031;-60
2023/12/29 00:42:58;;;;;;;0.52;0.50;;;9.10;99.90;;;;;;5006129;28;20026;-59
2023/12/29 00:45:24;;;;;;;1.75;0.75;;;9.10;99.90;;;;;;5006572;28;20510;-60
2023/12/29 00:47:51;;;;;;;4.65;1.15;;;9.10;99.90;;;;;;5005603;28;20100;-59
2023/12/29 00:50:17;;;;;;;3.47;0.73;;;9.10;99.90;;;;;;5010087;28;20431;-60
2023/12/29 00:52:43;;;;;;;3.10;0.73;;;9.10;99.90;;;;;;5006600;28;20072;-60
2023/12/29 00:55:08;;;;;;;3.85;0.68;;;9.10;99.90;;;;;;5010029;28;20040;-57
2023/12/29 00:57:34;;;;;;;4.03;0.70;;;9.10;99.90;;;;;;5006447;28;20041;-55
2023/12/29 01:00:00;;;;;;;2.65;0.73;;;9.10;99.90;;;;;;5005491;28;20453;-53
2023/12/29 01:02:26;;;;;;;2.78;0.85;;;9.10;99.90;;;;;;5005799;28;20061;-59
2023/12/29 01:04:52;;;;;;;3.63;1.30;;;9.10;99.90;;;;;;5004633;28;20072;-59
2023/12/29 01:07:17;;;;;;;1.08;0.60;;;9.10;99.90;;;;;;5003609;28;20139;-57
2023/12/29 01:09:43;;;;;;;6.10;1.10;;;9.10;99.90;;;;;;5010520;28;20030;-54
2023/12/29 01:12:09;;;;;;;5.53;0.90;;;9.10;99.90;;;;;;5010924;28;20041;-59
2023/12/29 01:14:35;;;;;;;4.95;0.80;;;9.20;99.90;;;;;;5007208;28;20030;-53
2023/12/29 01:17:00;;;;;;;4.20;0.80;;;9.20;99.90;;;;;;5004909;28;20042;-52
2023/12/29 01:19:26;;;;;;;3.35;0.93;;;9.20;99.90;;;;;;5009350;28;20107;-57
2023/12/29 01:21:51;;;;;;;4.20;0.85;;;9.20;99.90;;;;;;4997851;28;20038;-54
2023/12/29 01:24:17;;;;;;;6.68;0.80;;;9.20;99.90;;;;;;5009620;28;20034;-55
2023/12/29 01:26:43;;;;;;;2.17;0.60;;;9.20;99.90;;;;;;5009331;28;20038;-55
2023/12/29 01:29:08;;;;;;;6.90;0.98;;;9.20;99.90;;;;;;5001280;28;20535;-58
2023/12/29 01:31:34;;;;;;;3.83;0.90;;;9.20;99.90;;;;;;5009497;28;20153;-56
2023/12/29 01:33:59;;;;;;;4.07;1.25;;;9.20;99.90;;;;;;5008192;28;20030;-59
2023/12/29 01:36:25;;;;;;;6.47;1.05;;;9.20;99.90;;;;;;5012095;28;20092;-58
2023/12/29 01:38:51;;;;;;;4.07;1.27;;;9.20;99.90;;;;;;5002636;28;20042;-55
2023/12/29 01:41:19;;;;;;;4.32;1.00;;;9.10;99.90;;;;;;5009928;28;20025;-52
2023/12/29 01:44:00;;;;;;;2.88;0.95;;;9.20;99.90;;;;;;5007116;28;20141;-54
2023/12/29 01:46:31;;;;;;;3.88;1.17;;;9.20;99.90;;;;;;5006135;28;20105;-55
2023/12/29 01:48:58;;;;;;;4.10;0.85;;;9.30;99.90;;;;;;5007899;28;20034;-55
2023/12/29 01:51:25;;;;;;;3.47;1.00;;;9.30;99.90;;;;;;5008660;28;20041;-55
2023/12/29 01:53:53;;;;;;;3.55;0.82;;;9.30;99.90;;;;;;5003962;28;20428;-54
2023/12/29 01:56:20;;;;;;;6.82;0.82;;;9.30;99.90;;;;;;4982787;28;20034;-58
2023/12/29 01:58:48;;;;;;;2.65;1.17;;;9.30;99.90;;;;;;5006963;28;20053;-60
2023/12/29 02:01:14;;;;;;;4.78;1.00;;;9.30;99.90;;;;;;4999901;28;20492;-55
2023/12/29 02:03:40;;;;;;;5.82;1.50;;;9.40;99.90;;;;;;5008144;28;20033;-52
2023/12/29 02:06:06;;;;;;;2.65;0.98;;;9.30;99.90;;;;;;5010078;28;20034;-54
2023/12/29 02:08:32;;;;;;;7.30;1.25;;;9.40;99.90;;;;;;5007533;28;20038;-53
2023/12/29 02:10:58;;;;;;;9.82;1.00;;;9.40;99.90;;;;;;5003989;28;20499;-52
2023/12/29 02:13:24;;;;;;;6.15;0.73;;;9.40;99.90;;;;;;5006226;28;20037;-55
2023/12/29 02:15:58;;;;;;;5.55;1.05;;;9.40;99.90;;;;;;5007057;28;20436;-54
2023/12/29 02:18:25;;;;;;;7.82;1.95;;;9.40;99.90;;;;;;4966107;28;20060;-59
2023/12/29 02:20:50;;;;;;;1.60;0.63;;;9.40;99.90;;;;;;5008899;28;20042;-52
2023/12/29 02:23:16;;;;;;;3.33;1.02;;;9.40;99.90;;;;;;5001516;28;20097;-55
2023/12/29 02:25:42;;;;;;;6.28;1.35;;;9.40;99.90;;;;;;5008737;28;20037;-61
2023/12/29 02:28:24;;;;;;;12.25;1.67;;;9.40;99.90;;;;;;5008583;28;20101;-55
2023/12/29 02:30:55;;;;;;;3.28;0.82;;;9.50;99.90;;;;;;4991012;28;20030;-54
2023/12/29 02:33:22;;;;;;;3.85;0.85;;;9.50;99.90;;;;;;5000556;28;20488;-57
2023/12/29 02:35:52;;;;;;;2.70;0.73;;;9.50;99.90;;;;;;4991940;28;20030;-58
2023/12/29 02:38:18;;;;;;;5.18;1.65;;;9.60;99.90;;;;;;5006782;28;20116;-60
2023/12/29 02:40:43;;;;;;;6.43;0.85;;;9.60;99.90;;;;;;5007827;28;20432;-56
2023/12/29 02:43:09;;;;;;;2.72;1.40;;;9.60;99.90;;;;;;5009522;28;20133;-54
2023/12/29 02:45:35;;;;;;;8.68;1.25;;;9.60;99.90;;;;;;5006358;28;20523;-53
2023/12/29 02:48:01;;;;;;;4.93;1.58;;;9.60;99.90;;;;;;5008486;28;20038;-60
2023/12/29 02:50:26;;;;;;;4.30;1.23;;;9.70;99.90;;;;;;4989098;28;20027;-53
2023/12/29 02:52:52;;;;;;;2.92;0.68;;;9.70;99.90;;;;;;5003039;28;20080;-54
2023/12/29 02:55:18;;;;;;;10.07;1.42;;;9.70;99.90;;;;;;5009009;28;20029;-51
2023/12/29 02:57:44;;;;;;;4.32;0.95;;;9.70;99.90;;;;;;5008872;28;20060;-56
2023/12/29 03:00:10;;;;;;;8.98;1.40;;;9.70;99.90;;;;;;4988972;28;20037;-53
2023/12/29 03:02:36;;;;;;;4.07;1.00;;;9.70;99.90;;;;;;5008212;28;20412;-58
2023/12/29 03:05:01;;;;;;;3.47;1.08;;;9.80;99.90;;;;;;5007781;28;20033;-52
2023/12/29 03:07:27;;;;;;;4.32;1.15;;;9.80;99.90;;;;;;4989347;28;20041;-55
2023/12/29 03:09:53;;;;;;;6.22;1.60;;;9.80;99.90;;;;;;5009846;28;20388;-54
2023/12/29 03:12:18;;;;;;;5.43;1.30;;;9.80;99.90;;;;;;5008366;28;20076;-56
2023/12/29 03:14:44;;;;;;;7.82;1.10;;;9.80;99.90;;;;;;5009465;28;20030;-60
2023/12/29 03:17:11;;;;;;;4.97;0.98;;;9.80;99.90;;;;;;5009974;28;21171;-59
2023/12/29 03:19:37;;;;;;;4.32;1.05;;;9.80;99.90;;;;;;5006433;28;20022;-54
2023/12/29 03:22:02;;;;;;;4.68;1.08;;;9.80;99.90;;;;;;5010868;28;20365;-57
2023/12/29 03:24:29;;;;;;;9.23;1.20;;;9.80;99.90;;;;;;5003056;28;20036;-52
2023/12/29 03:26:54;;;;;;;9.35;1.33;;;9.80;99.90;;;;;;5009387;28;20029;-58
2023/12/29 03:29:20;;;;;;;4.30;1.00;;;9.80;99.90;;;;;;5009866;28;20033;-55
2023/12/29 03:31:46;;;;;;;6.53;1.15;;;9.80;99.90;;;;;;5007399;28;20077;-58
2023/12/29 03:34:11;;;;;;;7.00;1.05;;;9.80;99.90;;;;;;5010397;28;20026;-54
2023/12/29 03:36:37;;;;;;;6.22;1.00;;;9.80;99.90;;;;;;5007242;28;20041;-54
2023/12/29 03:39:03;;;;;;;4.57;1.67;;;9.80;99.90;;;;;;5006425;28;20038;-53
2023/12/29 03:41:28;;;;;;;6.18;1.02;;;9.80;99.90;;;;;;5009880;28;20500;-52
2023/12/29 03:43:56;;;;;;;7.18;1.58;;;9.80;99.90;;;;;;5009248;28;20034;-58
2023/12/29 03:46:22;;;;;;;2.55;1.20;;;9.80;99.90;;;;;;5006939;28;20029;-57
2023/12/29 03:48:48;;;;;;;3.17;0.90;;;9.80;99.90;;;;;;5010105;28;20026;-58
2023/12/29 03:51:15;;;;;;;2.63;0.70;;;9.80;99.90;;;;;;5009418;28;20029;-58
2023/12/29 03:53:40;;;;;;;4.15;0.82;;;9.80;99.90;;;;;;4980860;28;20081;-52
2023/12/29 03:56:08;;;;;;;6.72;1.85;;;9.80;99.90;;;;;;4999340;28;20042;-56
2023/12/29 03:58:35;;;;;;;5.65;1.27;;;9.80;99.90;;;;;;5002425;28;20038;-55
2023/12/29 04:01:00;;;;;;;9.48;1.83;;;9.80;99.90;;;;;;5004621;28;20036;-61
2023/12/29 04:03:26;;;;;;;4.70;0.85;;;9.80;99.90;;;;;;5005787;28;20404;-55
2023/12/29 04:05:51;;;;;;;6.13;1.88;;;9.80;99.90;;;;;;5005809;28;20205;-55
2023/12/29 04:08:17;;;;;;;5.40;0.98;;;9.80;99.90;;;;;;5011388;28;20054;-58
2023/12/29 04:10:42;;;;;;;3.08;0.95;;;9.90;99.90;;;;;;5005734;28;20038;-63
2023/12/29 04:13:08;;;;;;;5.55;1.25;;;9.90;99.90;;;;;;4988485;28;20034;-56
2023/12/29 04:15:34;;;;;;;3.20;0.85;;;9.90;99.90;;;;;;5003641;28;20042;-56
2023/12/29 04:17:59;;;;;;;12.45;1.23;;;9.80;99.90;;;;;;5010649;28;20045;-58
2023/12/29 04:20:25;;;;;;;3.10;0.45;;;9.80;99.90;;;;;;5009679;28;20048;-59
2023/12/29 04:22:50;;;;;;;2.58;0.80;;;9.80;99.90;;;;;;5005042;28;20030;-52
2023/12/29 04:25:16;;;;;;;5.22;1.05;;;9.80;99.90;;;;;;5009304;28;20522;-53
2023/12/29 04:27:41;;;;;;;1.55;0.60;;;9.80;99.90;;;;;;5013040;28;20487;-56
2023/12/29 04:30:07;;;;;;;4.28;1.10;;;9.80;99.90;;;;;;5008785;28;20034;-58
2023/12/29 04:32:33;;;;;;;5.45;0.90;;;9.80;99.90;;;;;;5012101;28;20172;-54
2023/12/29 04:34:59;;;;;;;12.00;1.90;;;9.80;99.90;;;;;;5011985;28;20030;-52
2023/12/29 04:37:24;;;;;;;3.63;1.23;;;9.80;99.90;;;;;;5011467;28;20018;-52
2023/12/29 04:39:50;;;;;;;4.00;1.08;;;9.90;99.90;;;;;;5009097;28;20034;-55
2023/12/29 04:42:17;;;;;;;5.68;1.13;;;9.80;99.90;;;;;;5008862;28;20022;-62
2023/12/29 04:44:43;;;;;;;3.72;0.82;;;9.80;99.90;;;;;;5008840;28;20108;-55
2023/12/29 04:47:09;;;;;;;2.28;0.40;;;9.80;99.90;;;;;;5011082;28;20026;-55
2023/12/29 04:49:35;;;;;;;11.02;1.77;;;9.80;99.90;;;;;;5009444;28;20076;-55
2023/12/29 04:52:00;;;;;;;6.47;1.50;;;9.80;99.90;;;;;;5011551;28;20030;-55
2023/12/29 04:54:26;;;;;;;6.05;1.42;;;9.80;99.90;;;;;;5009951;28;20468;-54
2023/12/29 04:56:51;;;;;;;5.75;1.55;;;9.80;99.90;;;;;;4990136;28;20030;-55
2023/12/29 04:59:17;;;;;;;5.13;0.77;;;9.80;99.90;;;;;;5007774;28;20081;-59
2023/12/29 05:01:43;;;;;;;0.80;0.43;;;9.80;99.90;;;;;;5010643;28;20045;-55
2023/12/29 05:04:08;;;;;;;3.90;0.60;;;9.80;99.90;;;;;;5006609;28;20100;-56
2023/12/29 05:06:34;;;;;;;2.40;0.73;;;9.80;99.90;;;;;;5004610;28;20469;-53
2023/12/29 05:08:59;;;;;;;7.55;1.63;;;9.80;99.90;;;;;;5010851;28;20026;-56
2023/12/29 05:11:25;;;;;;;11.68;0.85;;;9.70;99.90;;;;;;5010246;28;20177;-59
2023/12/29 05:13:51;;;;;;;9.35;1.65;;;9.80;99.90;;;;;;4986070;28;20048;-58
2023/12/29 05:16:16;;;;;;;10.75;1.25;;;9.70;99.90;;;;;;4991564;28;20052;-52
2023/12/29 05:18:42;;;;;;;8.48;0.98;;;9.80;99.90;;;;;;5007299;28;20031;-52
2023/12/29 05:21:15;;;;;;;6.38;0.95;;;9.80;99.90;;;;;;5007593;28;20029;-55
2023/12/29 05:23:41;;;;;;;15.88;1.75;;;9.80;99.90;;;;;;5010876;28;20036;-56
2023/12/29 05:26:07;;;;;;;3.28;0.65;;;9.80;99.90;;;;;;5010061;28;20481;-53
2023/12/29 05:28:32;;;;;;;4.88;1.45;;;9.70;99.90;;;;;;5010504;28;20365;-55
2023/12/29 05:31:03;;;;;;;3.42;0.73;;;9.80;99.90;;;;;;4986798;28;20030;-57
2023/12/29 05:33:29;;;;;;;3.65;0.90;;;9.80;99.90;;;;;;5011524;28;20026;-55
2023/12/29 05:35:54;;;;;;;4.05;0.82;;;9.80;99.90;;;;;;5011159;28;20029;-55
2023/12/29 05:38:20;;;;;;;4.57;1.23;;;9.80;99.90;;;;;;5007853;28;20125;-55
2023/12/29 05:40:45;;;;;;;6.22;1.50;;;9.70;99.90;;;;;;5010258;28;20396;-55
2023/12/29 05:43:11;;;;;;;5.60;1.45;;;9.70;99.90;;;;;;5012267;28;20523;-56
2023/12/29 05:45:37;;;;;;;2.40;0.80;;;9.70;99.90;;;;;;5008978;28;20065;-54
2023/12/29 05:48:02;;;;;;;5.70;0.70;;;9.70;99.90;;;;;;5009709;28;20025;-53
2023/12/29 05:50:28;;;;;;;2.13;0.77;;;9.70;99.90;;;;;;5008588;28;20524;-54
2023/12/29 05:52:54;;;;;;;9.40;1.38;;;9.70;99.90;;;;;;5008502;28;20036;-56
2023/12/29 05:55:19;;;;;;;3.65;1.13;;;9.70;99.90;;;;;;5010041;28;20399;-55
2023/12/29 05:57:45;;;;;;;4.57;0.82;;;9.70;99.90;;;;;;5003989;28;20037;-59
2023/12/29 06:00:14;;;;;;;9.23;1.80;;;9.70;99.90;;;;;;5008904;28;20100;-58
2023/12/29 06:02:41;;;;;;;6.13;0.80;;;9.70;99.90;;;;;;5007586;28;20040;-60
2023/12/29 06:05:07;;;;;;;6.13;0.88;;;9.60;99.90;;;;;;5006350;28;20380;-54
2023/12/29 06:07:33;;;;;;;4.68;1.55;;;9.70;99.90;;;;;;5010187;28;20077;-53
2023/12/29 06:09:59;;;;;;;4.57;0.93;;;9.70;99.90;;;;;;5003534;28;20105;-53
2023/12/29 06:12:25;;;;;;;3.70;0.70;;;9.70;99.90;;;;;;5009697;28;20101;-60
2023/12/29 06:14:50;;;;;;;6.20;0.98;;;9.60;99.90;;;;;;5004376;28;20044;-56
2023/12/29 06:17:16;;;;;;;5.07;0.80;;;9.60;99.90;;;;;;4991461;28;20030;-58
2023/12/29 06:19:42;;;;;;;9.05;1.33;;;9.60;99.90;;;;;;5003644;28;20038;-59
2023/12/29 06:22:11;;;;;;;2.67;0.47;;;9.60;99.90;;;;;;5010853;28;20567;-55
2023/12/29 06:24:37;;;;;;;7.25;0.77;;;9.60;99.90;;;;;;5011103;28;20030;-55
2023/12/29 06:27:03;;;;;;;8.20;1.65;;;9.60;99.90;;;;;;5004322;28;20022;-52
2023/12/29 06:29:29;;;;;;;10.13;1.42;;;9.60;99.90;;;;;;5008568;28;20074;-56
2023/12/29 06:31:55;;;;;;;7.63;1.98;;;9.60;99.90;;;;;;5007323;28;20376;-56
2023/12/29 06:34:20;;;;;;;10.55;3.25;;;9.60;99.90;;;;;;5008312;28;20563;-53
2023/12/29 06:36:46;;;;;;;6.85;0.75;;;9.50;99.90;;;;;;5008591;28;20084;-55
2023/12/29 06:39:11;;;;;;;4.00;0.80;;;9.50;99.90;;;;;;5008994;28;20384;-53
2023/12/29 06:41:37;;;;;;;3.53;0.75;;;9.50;99.90;;;;;;5003714;28;20036;-54
2023/12/29 06:44:03;;;;;;;1.60;0.75;;;9.60;99.90;;;;;;5006984;28;20061;-55
2023/12/29 06:46:28;;;;;;;9.18;1.63;;;9.60;99.90;;;;;;5000642;28;20144;-55
2023/12/29 06:48:54;;;;;;;6.43;0.77;;;9.60;99.90;;;;;;5006635;28;20048;-56
2023/12/29 06:51:22;;;;;;;3.20;0.82;;;9.50;99.90;;;;;;5007325;28;20069;-55
2023/12/29 06:53:48;;;;;;;3.20;0.88;;;9.50;99.90;;;;;;5014176;23;20030;-53
2023/12/29 06:56:17;;;;;;;3.03;0.70;;;9.50;99.90;;;;;;5027863;28;20056;-58
2023/12/29 06:58:44;;;;;;;10.73;1.48;;;9.50;99.90;;;;;;5018058;28;20034;-55
2023/12/29 07:01:10;;;;;;;4.00;0.95;;;9.50;99.90;;;;;;5023023;28;20446;-59
2023/12/29 07:03:35;;;;;;;8.00;0.80;;;9.50;99.90;;;;;;5023967;28;20100;-58
2023/12/29 07:06:02;;;;;;;3.88;0.85;;;9.50;99.90;;;;;;5039294;28;20025;-55
2023/12/29 07:08:28;;;;;;;2.63;0.60;;;9.50;99.90;;;;;;5034646;28;20398;-52
2023/12/29 07:10:54;;;;;;;1.40;0.50;;;9.50;99.90;;;;;;5034961;28;20439;-52
2023/12/29 07:13:19;;;;;;;3.22;1.05;;;9.50;99.90;;;;;;5000040;28;20120;-52
2023/12/29 07:15:46;;;;;;;7.60;0.93;;;9.50;99.90;;;;;;5014814;28;20029;-56
2023/12/29 07:18:12;;;;;;;3.55;1.15;;;9.50;99.90;;;;;;5039234;28;20030;-52
2023/12/29 07:20:38;;;;;;;3.28;0.75;;;9.50;99.90;;;;;;5030219;28;20391;-52
2023/12/29 07:23:03;;;;;;;9.73;0.82;;;9.50;99.90;;;;;;5034763;28;20071;-55
2023/12/29 07:25:29;;;;;;;4.05;1.25;;;9.50;99.90;;;;;;5015776;28;20041;-57
2023/12/29 07:27:55;;;;;;;4.38;1.23;;;9.50;99.90;;;;;;5026139;28;20021;-53
2023/12/29 07:30:20;;;;;;;4.53;0.90;;;9.60;99.90;;;;;;5035518;28;20032;-53
2023/12/29 07:32:46;;;;;;;2.35;0.80;;;9.60;99.90;;;;;;5033018;28;20048;-56
2023/12/29 07:35:15;;;;;;;3.95;0.65;;;9.60;99.90;;;;;;5033054;28;20475;-61
2023/12/29 07:37:40;;;;;;;2.20;0.68;;;9.60;99.90;;;;;;5016544;28;20029;-54
2023/12/29 07:40:07;;;;;;;3.20;0.60;;;9.60;99.90;;;;;;5039737;28;20481;-56
2023/12/29 07:42:33;;;;;;;7.53;1.08;;;9.60;99.90;;;;;;5033062;28;20071;-55
2023/12/29 07:44:59;;;;;;;3.25;0.50;;;9.60;99.90;;;;;;5031071;28;20369;-55
2023/12/29 07:47:24;;;;;;;2.60;0.65;;;9.60;99.90;;;;;;5031940;28;20093;-55
2023/12/29 07:49:50;;;;;;;2.72;0.88;;;9.60;99.90;;;;;;5034053;28;21124;-56
2023/12/29 07:52:16;;;;;;;0.80;0.55;;;9.60;99.90;;;;;;5035765;28;20071;-58
2023/12/29 07:54:41;;;;;;;2.53;0.47;;;9.70;99.90;;;;;;5038121;28;20210;-51
2023/12/29 07:57:07;;;;;;;6.53;0.73;;;9.70;99.90;;;;;;5044339;28;20467;-55
2023/12/29 07:59:33;;;;;;;1.08;0.30;;;9.70;99.90;;;;;;5031039;28;20075;-54
2023/12/29 08:01:59;;;;;;;6.95;0.90;;;9.70;99.90;;;;;;5028440;28;20025;-55
2023/12/29 08:04:24;;;;;;;3.13;0.63;;;9.70;99.90;;;;;;5033441;28;20468;-57
2023/12/29 08:06:50;;;;;;;2.80;0.50;;;9.80;99.90;;;;;;5034100;28;20029;-51
2023/12/29 08:09:15;;;;;;;5.10;0.73;;;9.70;99.90;;;;;;5039241;28;20529;-54
2023/12/29 08:11:42;;;;;;;5.88;0.45;;;9.70;99.90;;;;;;5036490;28;20056;-56
2023/12/29 08:14:08;;;;;;;6.32;0.70;;;9.70;99.90;;;;;;5037885;28;20029;-51
2023/12/29 08:16:40;;;;;;;2.63;0.40;;;9.70;99.90;;;;;;5028484;28;20036;-52
2023/12/29 08:19:06;;;;;;;4.07;0.98;;;9.70;99.90;;;;;;5017779;28;20041;-52
2023/12/29 08:21:32;;;;;;;3.25;0.70;;;9.70;99.90;;;;;;5038037;28;20418;-57
2023/12/29 08:23:58;;;;;;;6.40;1.17;;;9.70;99.90;;;;;;5030673;28;20083;-53
2023/12/29 08:26:23;;;;;;;36.08;13.98;;;9.70;99.90;;;;;;5035299;28;20029;-58
2023/12/29 08:28:49;;;;;;;28.25;15.00;;;9.60;99.90;;;;;;5042931;28;20030;-54
2023/12/29 08:31:16;;;;;;;8.65;6.10;;;9.60;99.90;;;;;;5029159;28;20395;-54
2023/12/29 08:33:42;;;;;;;4.05;2.38;;;9.60;99.90;;;;;;5036669;28;20167;-58
2023/12/29 08:36:07;;;;;;;3.55;1.13;;;9.50;99.90;;;;;;5032842;28;20049;-57
2023/12/29 08:38:33;;;;;;;3.85;0.90;;;9.40;99.90;;;;;;5036973;28;20049;-52
2023/12/29 08:40:59;;;;;;;5.88;2.10;;;9.30;99.90;;;;;;5038798;28;20047;-60
2023/12/29 08:43:26;;;;;;;7.22;1.48;;;9.30;99.90;;;;;;5037161;28;20025;-55
2023/12/29 08:45:51;;;;;;;3.33;1.42;;;9.30;99.90;;;;;;5030563;28;20027;-55
2023/12/29 08:48:17;;;;;;;4.50;2.03;;;9.20;99.90;;;;;;5037872;28;20096;-55
2023/12/29 08:50:43;;;;;;;3.33;0.98;;;9.20;99.90;;;;;;5037857;28;20037;-56
2023/12/29 08:53:09;;;;;;;37.13;14.90;;;9.20;99.90;;;;;;5002430;28;20049;-61
2023/12/29 08:55:35;;;;;;;33.53;13.52;;;9.20;99.90;;;;;;5030366;28;20124;-58
2023/12/29 08:58:01;;;;;;;122.85;39.15;;;9.20;99.90;;;;;;5033536;28;20111;-56
2023/12/29 09:00:26;;;;;;;60.67;23.30;;;9.20;99.90;;;;;;5026902;28;20072;-60
2023/12/29 09:02:53;;;;;;;46.00;18.63;;;9.20;99.90;;;;;;5023420;28;20084;-52
2023/12/29 09:05:18;;;;;;;62.60;24.95;;;9.10;99.90;;;;;;5030795;28;20028;-52
2023/12/29 09:07:44;;;;;;;30.10;11.85;;;9.10;99.90;;;;;;5034440;28;20021;-54
2023/12/29 09:10:12;;;;;;;12.43;6.50;;;9.10;99.90;;;;;;5033234;28;20035;-57
2023/12/29 09:12:38;;;;;;;12.38;3.22;;;9.10;99.90;;;;;;5029427;28;20034;-54
2023/12/29 09:15:05;;;;;;;3.00;1.33;;;9.10;99.90;;;;;;5025737;28;20475;-57
2023/12/29 09:17:31;;;;;;;3.67;1.10;;;9.10;99.90;;;;;;5025895;28;20476;-52
2023/12/29 09:19:56;;;;;;;3.83;1.13;;;9.10;99.90;;;;;;5028882;28;20029;-57
2023/12/29 09:22:22;;;;;;;4.13;1.08;;;9.10;99.90;;;;;;5028401;28;20104;-55
2023/12/29 09:24:47;;;;;;;3.70;1.20;;;9.10;99.90;;;;;;5038001;28;20416;-54
2023/12/29 09:27:13;;;;;;;6.90;2.25;;;9.10;99.90;;;;;;5034348;28;20028;-53
2023/12/29 09:29:40;;;;;;;6.90;2.13;;;9.10;99.90;;;;;;5030107;28;20142;-54
2023/12/29 09:32:06;;;;;;;5.70;1.95;;;9.20;99.90;;;;;;5038551;28;20028;-54
2023/12/29 09:34:31;;;;;;;6.55;1.92;;;9.20;99.90;;;;;;5033666;28;20045;-53
2023/12/29 09:36:57;;;;;;;5.38;1.40;;;9.30;99.90;;;;;;5041178;28;20036;-56
2023/12/29 09:39:23;;;;;;;8.43;1.77;;;9.30;99.90;;;;;;5037079;28;20463;-58
2023/12/29 09:41:51;;;;;;;4.50;2.00;;;9.30;99.90;;;;;;5038960;28;20026;-52
2023/12/29 09:44:21;;;;;;;7.15;1.65;;;9.30;99.90;;;;;;5027168;28;20113;-58
2023/12/29 09:46:52;;;;;;;5.22;1.73;;;9.40;99.90;;;;;;5033271;28;20033;-52
2023/12/29 09:49:19;;;;;;;6.55;1.20;;;9.40;99.90;;;;;;5040174;28;20549;-54
2023/12/29 09:51:45;;;;;;;9.82;1.15;;;9.40;99.90;;;;;;5027187;28;20175;-52
2023/12/29 09:54:13;;;;;;;4.88;1.85;;;9.40;99.90;;;;;;5033812;28;20116;-52
2023/12/29 09:56:39;;;;;;;3.65;0.75;;;9.40;99.90;;;;;;5022740;28;20495;-60
2023/12/29 09:59:06;;;;;;;1.55;0.80;;;9.40;99.90;;;;;;5028812;28;20024;-54
2023/12/29 10:01:33;;;;;;;8.23;1.02;;;9.40;99.90;;;;;;5024463;28;20017;-57
2023/12/29 10:03:59;;;;;;;2.40;1.00;;;9.40;99.90;;;;;;5029765;28;20017;-54
2023/12/29 10:06:25;;;;;;;4.63;0.57;;;9.50;99.90;;;;;;5041072;28;20029;-55
2023/12/29 10:08:51;;;;;;;2.90;0.50;;;9.50;99.90;;;;;;5040938;28;20097;-54
2023/12/29 10:11:21;;;;;;;4.15;1.02;;;9.50;99.90;;;;;;5033785;28;20127;-56
2023/12/29 10:13:50;;;;;;;3.90;1.02;;;9.60;99.90;;;;;;5023644;28;20033;-61
2023/12/29 10:16:35;;;;;;;1.58;0.50;;;9.60;99.90;;;;;;5028645;28;20029;-55
2023/12/29 10:19:21;;;;;;;1.67;0.60;;;9.60;99.90;;;;;;5022073;28;20024;-57
2023/12/29 10:21:57;;;;;;;2.15;0.63;;;9.70;99.90;;;;;;5035060;28;20079;-58
2023/12/29 10:24:22;;;;;;;3.13;0.57;;;9.80;99.90;;;;;;5038638;28;20026;-55
2023/12/29 10:26:50;;;;;;;1.60;0.40;;;9.80;99.90;;;;;;5036242;28;20669;-57
2023/12/29 10:29:18;;;;;;;3.05;0.60;;;9.80;99.90;;;;;;5026291;28;20056;-57
2023/12/29 10:31:44;;;;;;;9.77;3.47;;;9.90;99.90;;;;;;5033318;28;20034;-62
2023/12/29 10:34:28;;;;;;;7.32;3.17;;;9.90;99.90;;;;;;5031566;28;20031;-55
2023/12/29 10:36:55;;;;;;;14.77;1.10;;;9.90;99.90;;;;;;5033163;28;20483;-56
2023/12/29 10:39:20;;;;;;;4.43;1.08;;;9.80;99.90;;;;;;5036409;28;20485;-55
2023/12/29 10:41:46;;;;;;;4.50;2.25;;;9.80;99.90;;;;;;5030875;28;20072;-60
2023/12/29 10:44:12;;;;;;;7.50;4.63;;;9.90;99.90;;;;;;5026197;28;20266;-56
2023/12/29 10:46:37;;;;;;;3.55;1.75;;;9.90;99.90;;;;;;5030219;28;20053;-57
2023/12/29 10:49:11;;;;;;;8.77;4.32;;;10.00;99.90;;;;;;5033559;28;20089;-56
2023/12/29 10:51:37;;;;;;;;;;;10.00;99.90;;;;;;5024099;28;20044;-59
2023/12/29 10:54:03;;;;;;;4.90;2.05;;;10.00;99.90;;;;;;5020604;28;20378;-54
2023/12/29 10:56:29;;;;;;;12.77;5.40;;;10.00;99.90;;;;;;5038360;28;20415;-55
2023/12/29 10:59:05;;;;;;;9.80;3.13;;;10.00;99.90;;;;;;5038289;28;20538;-60
2023/12/29 11:01:35;;;;;;;12.57;6.43;;;10.00;99.90;;;;;;5022936;28;20574;-60
2023/12/29 11:04:09;;;;;;;11.23;5.00;;;10.00;99.90;;;;;;5021359;28;20120;-56
2023/12/29 11:06:47;;;;;;;18.48;8.68;;;10.10;99.90;;;;;;5035309;28;20025;-55
2023/12/29 11:09:12;;;;;;;13.82;6.35;;;10.10;99.90;;;;;;5036223;28;20033;-62
2023/12/29 11:11:38;;;;;;;5.13;2.35;;;10.10;99.90;;;;;;5024398;28;20037;-52
2023/12/29 11:14:04;;;;;;;53.53;21.92;;;10.10;99.90;;;;;;5030546;28;20501;-52
2023/12/29 11:16:32;;;;;;;5.28;2.60;;;10.10;99.90;;;;;;5021195;28;20021;-55
2023/12/29 11:19:03;;;;;;;15.73;7.85;;;10.10;99.90;;;;;;5035358;28;20037;-55
2023/12/29 11:21:31;;;;;;;22.13;9.05;;;10.10;99.90;;;;;;5030462;28;20113;-64
2023/12/29 11:23:58;;;;;;;70.32;20.67;;;10.10;99.90;;;;;;5029922;28;20025;-57
2023/12/29 11:26:25;;;;;;;29.75;10.85;;;10.00;99.90;;;;;;5036933;28;20052;-56
2023/12/29 11:28:51;;;;;;;6.53;1.30;;;10.00;99.90;;;;;;5034912;28;20025;-53
2023/12/29 11:31:17;;;;;;;11.63;4.10;;;10.10;99.90;;;;;;5022204;28;20025;-54
2023/12/29 11:33:56;;;;;;;6.80;3.70;;;10.10;99.90;;;;;;5017957;28;20033;-53
2023/12/29 11:36:33;;;;;;;5.45;2.30;;;10.10;99.90;;;;;;5000186;28;20550;-53
2023/12/29 11:39:02;;;;;;;9.68;3.85;;;10.20;99.90;;;;;;5036818;28;20030;-51
2023/12/29 11:41:46;;;;;;;4.90;2.40;;;10.20;99.90;;;;;;5041158;28;20025;-55
2023/12/29 11:44:12;;;;;;;4.10;1.52;;;10.30;99.90;;;;;;5024677;28;20021;-57
2023/12/29 11:46:42;;;;;;;6.18;1.80;;;10.30;99.90;;;;;;5026913;28;20034;-55
2023/12/29 11:49:08;;;;;;;16.65;7.65;;;10.30;99.90;;;;;;5021917;28;20498;-56
2023/12/29 11:51:45;;;;;;;13.90;6.45;;;10.40;99.90;;;;;;5025438;28;20032;-57
2023/12/29 11:54:20;;;;;;;24.17;9.30;;;10.40;99.90;;;;;;5030924;28;20511;-59
2023/12/29 11:56:47;;;;;;;44.15;13.77;;;10.40;99.90;;;;;;5038268;28;20022;-52
2023/12/29 11:59:17;;;;;;;48.75;16.95;;;10.40;99.90;;;;;;5032083;28;20080;-61
2023/12/29 12:01:44;;;;;;;17.27;6.80;;;10.40;99.90;;;;;;5026648;28;20099;-55
2023/12/29 12:04:40;;;;;;;12.43;5.28;;;10.50;99.90;;;;;;5029311;28;20048;-62
2023/12/29 12:07:12;;;;;;;9.57;4.05;;;10.50;99.90;;;;;;5035008;28;20422;-54
2023/12/29 12:09:37;;;;;;;5.35;2.40;;;10.50;99.90;;;;;;5030087;28;20087;-52
2023/12/29 12:12:05;;;;;;;5.60;2.35;;;10.60;99.90;;;;;;5031167;28;20430;-56
2023/12/29 12:14:49;;;;;;;3.85;1.50;;;10.60;99.90;;;;;;5026769;28;20399;-59
2023/12/29 12:17:32;;;;;;;7.57;3.00;;;10.60;99.90;;;;;;5030982;28;20099;-58
2023/12/29 12:20:06;;;;;;;3.25;1.40;;;10.60;99.90;;;;;;5025113;28;20379;-55
2023/12/29 12:22:32;;;;;;;5.22;1.45;;;10.60;99.90;;;;;;5032957;28;20044;-57
2023/12/29 12:24:59;;;;;;;1.40;0.80;;;10.60;99.90;;;;;;5016093;28;20391;-54
2023/12/29 12:27:26;;;;;;;5.90;2.80;;;10.60;99.90;;;;;;5033867;28;20471;-52
2023/12/29 12:29:57;;;;;;;3.88;1.65;;;10.60;99.90;;;;;;5023564;28;20031;-55
2023/12/29 12:32:23;;;;;;;2.53;1.35;;;10.60;99.90;;;;;;5009657;28;20033;-55
2023/12/29 12:34:49;;;;;;;3.55;1.67;;;10.60;99.90;;;;;;5029857;28;20390;-55
2023/12/29 12:37:22;;;;;;;2.88;1.23;;;10.60;99.90;;;;;;5017080;28;20030;-55
2023/12/29 12:39:48;;;;;;;1.17;0.83;;;10.60;99.90;;;;;;5038693;28;20136;-55
2023/12/29 12:42:15;;;;;;;1.75;0.60;;;10.60;99.90;;;;;;5035563;28;20075;-55
2023/12/29 12:44:42;;;;;;;5.25;1.73;;;10.60;99.90;;;;;;5034877;28;20065;-58
2023/12/29 12:47:14;;;;;;;1.48;1.00;;;10.60;99.90;;;;;;5043036;28;20037;-52
2023/12/29 12:49:41;;;;;;;4.47;2.20;;;10.60;99.90;;;;;;5031085;28;20491;-58
2023/12/29 12:52:06;;;;;;;1.83;1.60;;;10.50;99.90;;;;;;5031349;28;20682;-55